Time;durP1;ratioP1;P1;durP2;ratioP2;P2;SDS_P1;SDS_P2;PMS_P1;PMS_P2;Temp;Humidity;BMP_temperature;BMP_pressure;BME280_temperature;BME280_humidity;BME280_pressure;Samples;Min_cycle;Max_cycle;Signal;HPM_P1;HPM_P2
2024/01/07 00:00:40;;;;;;;0.90;0.90;;;-15.00;99.90;;;;;;5011441;28;20206;-66
2024/01/07 00:03:06;;;;;;;1.00;1.00;;;-14.90;99.90;;;;;;5011339;28;20204;-66
2024/01/07 00:05:34;;;;;;;0.90;0.90;;;-14.90;99.90;;;;;;4995471;28;20681;-66
2024/01/07 00:08:00;;;;;;;0.93;0.93;;;-14.90;99.90;;;;;;4991679;28;20722;-66
2024/01/07 00:10:26;;;;;;;1.00;1.00;;;-14.80;99.90;;;;;;4990306;28;20195;-68
2024/01/07 00:12:54;;;;;;;1.00;1.00;;;-14.80;99.90;;;;;;4991986;28;20200;-68
2024/01/07 00:15:26;;;;;;;1.00;1.00;;;-14.80;99.90;;;;;;4991603;28;20243;-68
2024/01/07 00:17:55;;;;;;;0.90;0.90;;;-14.70;99.90;;;;;;4990181;28;20706;-68
2024/01/07 00:20:24;;;;;;;0.90;0.90;;;-14.70;99.90;;;;;;4991382;28;20206;-68
2024/01/07 00:23:01;;;;;;;1.00;1.00;;;-14.60;99.90;;;;;;4991463;28;20207;-69
2024/01/07 00:25:32;;;;;;;1.00;1.00;;;-14.60;99.90;;;;;;4991430;28;20214;-69
2024/01/07 00:28:03;;;;;;;0.90;0.90;;;-14.60;99.90;;;;;;4991565;28;20211;-69
2024/01/07 00:31:04;;;;;;;1.00;1.00;;;-14.50;99.90;;;;;;4997211;28;20198;-70
2024/01/07 00:33:31;;;;;;;0.90;0.90;;;-14.50;99.90;;;;;;5010974;28;20198;-69
2024/01/07 00:35:57;;;;;;;0.90;0.90;;;-14.50;99.90;;;;;;5011024;28;20257;-69
2024/01/07 00:38:22;;;;;;;0.90;0.90;;;-14.40;99.90;;;;;;5017369;28;20225;-69
2024/01/07 00:40:48;;;;;;;0.90;0.90;;;-14.40;99.90;;;;;;5030826;28;20202;-69
2024/01/07 00:43:14;;;;;;;0.90;0.90;;;-14.30;99.90;;;;;;5030914;28;20222;-70
2024/01/07 00:45:39;;;;;;;0.90;0.90;;;-14.30;99.90;;;;;;5030798;28;20716;-70
2024/01/07 00:48:06;;;;;;;0.80;0.80;;;-14.20;99.90;;;;;;5029417;28;20206;-69
2024/01/07 00:50:31;;;;;;;0.90;0.90;;;-14.20;99.90;;;;;;5030437;28;20244;-69
2024/01/07 00:52:57;;;;;;;0.90;0.90;;;-14.20;99.90;;;;;;5030668;28;20566;-70
2024/01/07 00:55:23;;;;;;;0.80;0.80;;;-14.20;99.90;;;;;;5029257;28;20600;-69
2024/01/07 00:57:49;;;;;;;0.90;0.90;;;-14.10;99.90;;;;;;5030679;28;20186;-70
2024/01/07 01:00:16;;;;;;;0.90;0.90;;;-14.00;99.90;;;;;;5030607;28;20281;-69
2024/01/07 01:02:41;;;;;;;0.90;0.90;;;-14.00;99.90;;;;;;5030283;28;20728;-69
2024/01/07 01:05:07;;;;;;;0.90;0.90;;;-14.00;99.90;;;;;;5030543;28;20194;-70
2024/01/07 01:07:33;;;;;;;1.00;1.00;;;-14.00;99.90;;;;;;5030267;28;20209;-69
2024/01/07 01:09:58;;;;;;;1.00;1.00;;;-13.90;99.90;;;;;;5029159;28;20194;-69
2024/01/07 01:12:24;;;;;;;1.00;1.00;;;-13.90;99.90;;;;;;5030333;28;20209;-70
2024/01/07 01:14:50;;;;;;;0.90;0.90;;;-13.90;99.90;;;;;;5030401;28;20594;-69
2024/01/07 01:17:16;;;;;;;0.90;0.90;;;-13.90;99.90;;;;;;5030490;28;20696;-69
2024/01/07 01:19:41;;;;;;;0.90;0.90;;;-13.80;99.90;;;;;;5030344;28;20598;-68
2024/01/07 01:22:07;;;;;;;0.90;0.90;;;-13.80;99.90;;;;;;5028983;28;20244;-67
2024/01/07 01:24:32;;;;;;;0.90;0.90;;;-13.80;99.90;;;;;;5030177;28;20320;-67
2024/01/07 01:26:58;;;;;;;0.90;0.90;;;-13.70;99.90;;;;;;5020646;28;20658;-67
2024/01/07 01:29:24;;;;;;;0.93;0.93;;;-13.70;99.90;;;;;;5010291;28;20254;-67
2024/01/07 01:31:50;;;;;;;0.90;0.90;;;-13.70;99.90;;;;;;5010565;28;20564;-67
2024/01/07 01:34:15;;;;;;;0.90;0.90;;;-13.60;99.90;;;;;;5014060;28;20274;-66
2024/01/07 01:36:41;;;;;;;1.00;1.00;;;-13.60;99.90;;;;;;5033623;28;20234;-66
2024/01/07 01:39:07;;;;;;;0.90;0.90;;;-13.60;99.90;;;;;;5033842;28;20194;-67
2024/01/07 01:41:33;;;;;;;1.00;1.00;;;-13.60;99.90;;;;;;5033765;28;20194;-67
2024/01/07 01:44:00;;;;;;;1.00;1.00;;;-13.50;99.90;;;;;;5033874;28;20244;-67
2024/01/07 01:46:25;;;;;;;0.90;0.90;;;-13.50;99.90;;;;;;5033744;28;20277;-67
2024/01/07 01:48:52;;;;;;;0.90;0.90;;;-13.50;99.90;;;;;;5033749;28;20292;-67
2024/01/07 01:51:18;;;;;;;1.00;1.00;;;-13.50;99.90;;;;;;5032371;28;20676;-67
2024/01/07 01:53:45;;;;;;;1.00;1.00;;;-13.40;99.90;;;;;;5034058;28;20199;-67
2024/01/07 01:56:12;;;;;;;0.90;0.90;;;-13.40;99.90;;;;;;5033718;28;20265;-67
2024/01/07 01:58:37;;;;;;;1.73;1.63;;;-13.40;99.90;;;;;;5033511;28;20202;-67
2024/01/07 02:01:04;;;;;;;0.90;0.90;;;-13.40;99.90;;;;;;5032351;28;20281;-67
2024/01/07 02:03:29;;;;;;;1.00;1.00;;;-13.40;99.90;;;;;;5033233;28;20202;-67
2024/01/07 02:05:57;;;;;;;0.90;0.90;;;-13.30;99.90;;;;;;5014007;28;20257;-67
2024/01/07 02:08:24;;;;;;;0.90;0.90;;;-13.30;99.90;;;;;;5013262;28;20725;-67
2024/01/07 02:10:50;;;;;;;0.90;0.90;;;-13.30;99.90;;;;;;5013075;28;20238;-67
2024/01/07 02:13:16;;;;;;;0.90;0.90;;;-13.30;99.90;;;;;;5013432;28;20546;-68
2024/01/07 02:15:42;;;;;;;0.90;0.90;;;-13.30;99.90;;;;;;5013300;28;20245;-67
2024/01/07 02:18:08;;;;;;;1.00;1.00;;;-13.20;99.90;;;;;;5013494;28;20237;-67
2024/01/07 02:20:35;;;;;;;1.00;1.00;;;-13.20;99.90;;;;;;5013103;28;20198;-67
2024/01/07 02:23:01;;;;;;;0.93;0.93;;;-13.20;99.90;;;;;;5013191;28;20190;-68
2024/01/07 02:25:27;;;;;;;0.90;0.90;;;-13.20;99.90;;;;;;5013116;28;20569;-67
2024/01/07 02:27:53;;;;;;;1.00;1.00;;;-13.20;99.90;;;;;;5011772;28;20217;-66
2024/01/07 02:30:19;;;;;;;1.00;1.00;;;-13.20;99.90;;;;;;5014888;28;20607;-70
2024/01/07 02:32:44;;;;;;;1.00;1.00;;;-13.10;99.90;;;;;;5033171;28;20264;-70
2024/01/07 02:35:10;;;;;;;1.00;1.00;;;-13.20;99.90;;;;;;5015091;28;20244;-69
2024/01/07 02:37:36;;;;;;;0.90;0.90;;;-13.10;99.90;;;;;;5032921;28;20212;-69
2024/01/07 02:40:01;;;;;;;0.90;0.90;;;-13.10;99.90;;;;;;5032923;28;20186;-69
2024/01/07 02:42:27;;;;;;;1.00;1.00;;;-13.10;99.90;;;;;;5033010;28;20201;-70
2024/01/07 02:44:53;;;;;;;1.00;1.00;;;-13.10;99.90;;;;;;5032858;28;20301;-70
2024/01/07 02:47:18;;;;;;;0.90;0.90;;;-13.10;99.90;;;;;;5031395;28;20561;-70
2024/01/07 02:49:44;;;;;;;1.00;1.00;;;-13.00;99.90;;;;;;5032973;28;20553;-69
2024/01/07 02:52:10;;;;;;;1.00;1.00;;;-13.00;99.90;;;;;;5032602;28;20189;-69
2024/01/07 02:54:35;;;;;;;1.00;1.00;;;-13.00;99.90;;;;;;5032461;28;20187;-69
2024/01/07 02:57:01;;;;;;;0.93;0.93;;;-12.90;99.90;;;;;;5032639;28;20197;-69
2024/01/07 02:59:27;;;;;;;1.00;1.00;;;-12.90;99.90;;;;;;5032265;28;20206;-69
2024/01/07 03:01:53;;;;;;;1.00;1.00;;;-12.90;99.90;;;;;;5015597;28;20203;-69
2024/01/07 03:04:18;;;;;;;0.90;0.90;;;-12.90;99.90;;;;;;5012596;28;20202;-70
2024/01/07 03:06:44;;;;;;;0.90;0.90;;;-12.90;99.90;;;;;;5012501;28;20199;-69
2024/01/07 03:09:10;;;;;;;1.00;1.00;;;-12.80;99.90;;;;;;5012426;28;20213;-69
2024/01/07 03:11:41;;;;;;;1.20;1.20;;;-12.80;99.90;;;;;;5012647;28;20273;-69
2024/01/07 03:14:06;;;;;;;1.00;1.00;;;-12.80;99.90;;;;;;4994674;28;20658;-70
2024/01/07 03:16:32;;;;;;;1.00;1.00;;;-12.80;99.90;;;;;;5012265;28;20278;-69
2024/01/07 03:18:58;;;;;;;1.00;1.00;;;-12.80;99.90;;;;;;4994515;28;20560;-70
2024/01/07 03:21:24;;;;;;;1.10;1.10;;;-12.70;99.90;;;;;;5011997;28;20346;-70
2024/01/07 03:23:51;;;;;;;1.00;1.00;;;-12.70;99.90;;;;;;5012275;28;20626;-70
2024/01/07 03:26:18;;;;;;;0.93;0.93;;;-12.70;99.90;;;;;;5012238;28;20572;-70
2024/01/07 03:28:44;;;;;;;1.00;1.00;;;-12.70;99.90;;;;;;5031717;28;20236;-69
2024/01/07 03:31:16;;;;;;;0.83;0.83;;;-12.70;99.90;;;;;;5031879;28;20195;-70
2024/01/07 03:33:42;;;;;;;1.00;1.00;;;-12.70;99.90;;;;;;5031701;28;20798;-70
2024/01/07 03:36:09;;;;;;;1.00;1.00;;;-12.70;99.90;;;;;;5031632;28;20253;-70
2024/01/07 03:38:35;;;;;;;1.00;1.00;;;-12.70;99.90;;;;;;5031791;28;20194;-70
2024/01/07 03:41:01;;;;;;;1.00;1.00;;;-12.70;99.90;;;;;;5031782;28;20193;-70
2024/01/07 03:43:27;;;;;;;1.00;1.00;;;-12.70;99.90;;;;;;5031875;28;20202;-70
2024/01/07 03:45:52;;;;;;;0.90;0.90;;;-12.70;99.90;;;;;;5031629;28;20206;-70
2024/01/07 03:48:18;;;;;;;1.00;1.00;;;-12.70;99.90;;;;;;5031690;28;20230;-70
2024/01/07 03:50:44;;;;;;;1.00;1.00;;;-12.70;99.90;;;;;;5030242;28;20226;-70
2024/01/07 03:53:10;;;;;;;1.00;1.00;;;-12.60;99.90;;;;;;5031443;28;20600;-70
2024/01/07 03:55:35;;;;;;;0.90;0.90;;;-12.60;99.90;;;;;;5031386;28;20240;-70
2024/01/07 03:58:01;;;;;;;0.90;0.90;;;-12.60;99.90;;;;;;5014862;28;20229;-69
2024/01/07 04:00:26;;;;;;;0.90;0.90;;;-12.70;99.90;;;;;;5011283;28;20326;-70
2024/01/07 04:02:52;;;;;;;0.90;0.90;;;-12.60;99.90;;;;;;5010840;28;20320;-70
2024/01/07 04:05:18;;;;;;;0.90;0.90;;;-12.60;99.90;;;;;;5011484;28;20229;-69
2024/01/07 04:07:43;;;;;;;1.00;1.00;;;-12.60;99.90;;;;;;5011464;28;20230;-70
2024/01/07 04:10:10;;;;;;;1.00;1.00;;;-12.60;99.90;;;;;;5011500;28;20277;-70
2024/01/07 04:12:36;;;;;;;1.00;1.00;;;-12.50;99.90;;;;;;5011193;28;20186;-70
2024/01/07 04:15:03;;;;;;;1.00;1.00;;;-12.50;99.90;;;;;;5011226;28;20194;-70
2024/01/07 04:17:29;;;;;;;1.00;1.00;;;-12.50;99.90;;;;;;5011094;28;20202;-70
2024/01/07 04:19:55;;;;;;;1.00;1.00;;;-12.50;99.90;;;;;;5011252;28;20187;-70
2024/01/07 04:22:21;;;;;;;1.00;1.00;;;-12.40;99.90;;;;;;5011068;28;20191;-70
2024/01/07 04:24:47;;;;;;;1.00;1.00;;;-12.40;99.90;;;;;;5029124;28;20602;-71
2024/01/07 04:27:12;;;;;;;1.00;1.00;;;-12.40;99.90;;;;;;5030962;28;20624;-70
2024/01/07 04:29:38;;;;;;;0.97;0.97;;;-12.40;99.90;;;;;;5030751;28;20635;-70
2024/01/07 04:32:04;;;;;;;1.00;1.00;;;-12.40;99.90;;;;;;5030906;28;20186;-70
2024/01/07 04:34:29;;;;;;;0.90;0.90;;;-12.40;99.90;;;;;;5030962;28;20194;-70
2024/01/07 04:36:55;;;;;;;1.00;1.00;;;-12.30;99.90;;;;;;5030779;28;20230;-70
2024/01/07 04:39:21;;;;;;;1.00;1.00;;;-12.30;99.90;;;;;;5030725;28;20198;-70
2024/01/07 04:41:46;;;;;;;1.00;1.00;;;-12.30;99.90;;;;;;5030999;28;20191;-70
2024/01/07 04:44:12;;;;;;;1.00;1.00;;;-12.30;99.90;;;;;;5029540;28;20226;-70
2024/01/07 04:46:39;;;;;;;3.60;3.27;;;-12.30;99.90;;;;;;5030594;28;20198;-70
2024/01/07 04:49:05;;;;;;;1.00;1.00;;;-12.20;99.90;;;;;;5004130;28;20212;-68
2024/01/07 04:51:36;;;;;;;1.00;1.00;;;-12.20;99.90;;;;;;5028032;28;20209;-68
2024/01/07 04:54:01;;;;;;;1.00;1.00;;;-12.20;99.90;;;;;;5016677;28;20712;-68
2024/01/07 04:56:27;;;;;;;1.00;1.00;;;-12.20;99.90;;;;;;5010812;28;20195;-69
2024/01/07 04:58:53;;;;;;;1.00;1.00;;;-12.20;99.90;;;;;;5009591;28;20203;-69
2024/01/07 05:01:18;;;;;;;0.93;0.93;;;-12.20;99.90;;;;;;5010764;28;20229;-68
2024/01/07 05:03:44;;;;;;;0.90;0.90;;;-12.10;99.90;;;;;;5010691;28;20658;-69
2024/01/07 05:06:10;;;;;;;1.10;1.10;;;-12.10;99.90;;;;;;5010758;28;20302;-69
2024/01/07 05:08:37;;;;;;;0.93;0.93;;;-12.00;99.90;;;;;;5010595;28;20206;-68
2024/01/07 05:11:03;;;;;;;1.00;1.00;;;-11.90;99.90;;;;;;5013834;28;20676;-68
2024/01/07 05:13:30;;;;;;;0.90;0.90;;;-11.90;99.90;;;;;;5014298;28;20195;-69
2024/01/07 05:15:56;;;;;;;0.93;0.93;;;-11.90;99.90;;;;;;5014736;28;20199;-68
2024/01/07 05:18:22;;;;;;;1.00;1.00;;;-11.90;99.90;;;;;;5014406;28;20245;-68
2024/01/07 05:20:48;;;;;;;1.00;1.00;;;-11.90;99.90;;;;;;5030809;28;20202;-69
2024/01/07 05:23:14;;;;;;;1.00;1.00;;;-11.90;99.90;;;;;;5034436;28;20300;-68
2024/01/07 05:25:42;;;;;;;0.90;0.90;;;-11.90;99.90;;;;;;5034233;28;20559;-68
2024/01/07 05:28:08;;;;;;;0.80;0.80;;;-11.90;99.90;;;;;;5033136;28;20237;-68
2024/01/07 05:30:33;;;;;;;0.90;0.90;;;-12.00;99.90;;;;;;5034008;28;20288;-68
2024/01/07 05:32:59;;;;;;;0.90;0.90;;;-12.00;99.90;;;;;;5034300;28;20604;-68
2024/01/07 05:35:25;;;;;;;1.00;1.00;;;-12.00;99.90;;;;;;5034109;28;20549;-68
2024/01/07 05:37:50;;;;;;;1.00;1.00;;;-12.10;99.90;;;;;;5034046;28;20585;-69
2024/01/07 05:40:16;;;;;;;1.00;1.00;;;-12.10;99.90;;;;;;5033976;28;20201;-68
2024/01/07 05:42:42;;;;;;;0.90;0.90;;;-12.10;99.90;;;;;;5033801;28;20194;-68
2024/01/07 05:45:08;;;;;;;1.00;1.00;;;-12.10;99.90;;;;;;5033902;28;20218;-67
2024/01/07 05:47:33;;;;;;;1.00;1.00;;;-12.10;99.90;;;;;;5033659;28;20472;-68
2024/01/07 05:49:59;;;;;;;0.90;0.90;;;-12.10;99.90;;;;;;5021858;28;20191;-68
2024/01/07 05:52:25;;;;;;;1.00;1.00;;;-12.20;99.90;;;;;;5013860;28;20198;-68
2024/01/07 05:54:50;;;;;;;0.90;0.90;;;-12.20;99.90;;;;;;5013912;28;20198;-68
2024/01/07 05:57:16;;;;;;;0.90;0.90;;;-12.10;99.90;;;;;;5012867;28;20195;-68
2024/01/07 05:59:44;;;;;;;0.90;0.90;;;-12.10;99.90;;;;;;5013845;28;20278;-70
2024/01/07 06:02:09;;;;;;;1.00;1.00;;;-12.10;99.90;;;;;;5013960;28;20198;-70
2024/01/07 06:04:37;;;;;;;0.90;0.90;;;-12.10;99.90;;;;;;5013505;28;20614;-70
2024/01/07 06:07:03;;;;;;;1.00;1.00;;;-12.10;99.90;;;;;;5013707;28;20195;-68
2024/01/07 06:09:29;;;;;;;1.00;1.00;;;-12.10;99.90;;;;;;5012045;28;20361;-70
2024/01/07 06:11:55;;;;;;;1.00;1.00;;;-12.10;99.90;;;;;;4996191;28;20209;-70
2024/01/07 06:14:22;;;;;;;1.00;1.00;;;-12.10;99.90;;;;;;5013743;28;20590;-70
2024/01/07 06:16:48;;;;;;;0.90;0.90;;;-12.10;99.90;;;;;;5025016;28;20206;-70
2024/01/07 06:19:14;;;;;;;1.00;1.00;;;-12.00;99.90;;;;;;5033256;28;20221;-69
2024/01/07 06:21:40;;;;;;;1.00;1.00;;;-12.00;99.90;;;;;;5032777;28;20681;-70
2024/01/07 06:24:08;;;;;;;0.90;0.90;;;-12.00;99.90;;;;;;5033218;28;20194;-70
2024/01/07 06:26:34;;;;;;;0.90;0.90;;;-12.00;99.90;;;;;;5033496;28;20618;-69
2024/01/07 06:28:59;;;;;;;1.00;1.00;;;-12.00;99.90;;;;;;5033343;28;20225;-70
2024/01/07 06:31:25;;;;;;;0.90;0.90;;;-12.00;99.90;;;;;;5032877;28;20201;-70
2024/01/07 06:33:51;;;;;;;1.00;1.00;;;-11.90;99.90;;;;;;5033023;28;20186;-70
2024/01/07 06:36:17;;;;;;;1.10;1.10;;;-11.90;99.90;;;;;;5032725;28;20230;-70
2024/01/07 06:38:43;;;;;;;1.33;1.30;;;-11.90;99.90;;;;;;5032976;28;20253;-70
2024/01/07 06:41:11;;;;;;;0.90;0.90;;;-11.90;99.90;;;;;;5032920;28;20200;-70
2024/01/07 06:43:37;;;;;;;1.00;1.00;;;-11.80;99.90;;;;;;5031472;28;20202;-70
2024/01/07 06:46:03;;;;;;;0.90;0.90;;;-11.80;99.90;;;;;;5022853;28;20677;-70
2024/01/07 06:48:28;;;;;;;0.97;0.97;;;-11.70;99.90;;;;;;5013344;28;20563;-70
2024/01/07 06:50:54;;;;;;;1.00;1.00;;;-11.70;99.90;;;;;;5012860;28;20245;-70
2024/01/07 06:53:21;;;;;;;0.97;0.97;;;-11.70;99.90;;;;;;5012653;28;20201;-70
2024/01/07 06:55:47;;;;;;;0.90;0.90;;;-11.70;99.90;;;;;;5012887;28;20195;-70
2024/01/07 06:58:12;;;;;;;1.00;1.00;;;-11.70;99.90;;;;;;5012837;28;20610;-70
2024/01/07 07:00:38;;;;;;;0.90;0.90;;;-11.60;99.90;;;;;;5012598;28;20290;-70
2024/01/07 07:03:05;;;;;;;1.00;1.00;;;-11.60;99.90;;;;;;5013105;28;20189;-70
2024/01/07 07:05:31;;;;;;;0.90;0.90;;;-11.60;99.90;;;;;;5012560;28;20669;-69
2024/01/07 07:07:57;;;;;;;0.97;0.97;;;-11.60;99.90;;;;;;5012640;28;20201;-70
2024/01/07 07:10:23;;;;;;;0.97;0.97;;;-11.60;99.90;;;;;;5010895;28;20574;-70
2024/01/07 07:12:50;;;;;;;0.93;0.93;;;-11.60;99.90;;;;;;5024371;28;20202;-70
2024/01/07 07:15:16;;;;;;;1.37;1.30;;;-11.60;99.90;;;;;;5032271;28;20186;-70
2024/01/07 07:17:42;;;;;;;1.00;1.00;;;-11.60;99.90;;;;;;5032205;28;20190;-70
2024/01/07 07:20:08;;;;;;;1.03;1.03;;;-11.50;99.90;;;;;;5032045;28;20198;-70
2024/01/07 07:22:34;;;;;;;1.00;1.00;;;-11.60;99.90;;;;;;5031933;28;20197;-70
2024/01/07 07:25:00;;;;;;;1.00;1.00;;;-11.50;99.90;;;;;;5032047;28;20257;-70
2024/01/07 07:27:25;;;;;;;0.90;0.90;;;-11.50;99.90;;;;;;5031744;28;20208;-70
2024/01/07 07:29:51;;;;;;;1.00;1.00;;;-11.50;99.90;;;;;;5031674;28;20294;-70
2024/01/07 07:32:16;;;;;;;0.90;0.90;;;-11.50;99.90;;;;;;5029920;28;20205;-70
2024/01/07 07:34:42;;;;;;;3.57;3.27;;;-11.50;99.90;;;;;;5031818;28;20209;-69
2024/01/07 07:37:08;;;;;;;0.90;0.90;;;-11.40;99.90;;;;;;5031652;28;20226;-70
2024/01/07 07:39:33;;;;;;;1.57;1.47;;;-11.40;99.90;;;;;;5031556;28;20194;-69
2024/01/07 07:42:00;;;;;;;1.20;1.20;;;-11.40;99.90;;;;;;5022689;28;20296;-69
2024/01/07 07:44:25;;;;;;;1.00;1.00;;;-11.40;99.90;;;;;;5011703;28;20627;-69
2024/01/07 07:46:51;;;;;;;0.93;0.93;;;-11.30;99.90;;;;;;5011959;28;20282;-69
2024/01/07 07:49:16;;;;;;;0.90;0.90;;;-11.40;99.90;;;;;;5011468;28;20234;-67
2024/01/07 07:51:43;;;;;;;0.90;0.90;;;-11.30;99.90;;;;;;5011674;28;20199;-69
2024/01/07 07:54:09;;;;;;;0.90;0.90;;;-11.30;99.90;;;;;;5011659;28;20194;-69
2024/01/07 07:56:35;;;;;;;1.00;1.00;;;-11.20;99.90;;;;;;5011394;28;20318;-69
2024/01/07 07:59:02;;;;;;;0.90;0.90;;;-11.10;99.90;;;;;;5011660;28;20194;-69
2024/01/07 08:01:28;;;;;;;0.90;0.90;;;-11.10;99.90;;;;;;5011192;28;20206;-69
2024/01/07 08:03:54;;;;;;;1.00;1.00;;;-11.10;99.90;;;;;;5011471;28;20546;-69
2024/01/07 08:06:19;;;;;;;0.90;0.90;;;-11.10;99.90;;;;;;5011131;28;20351;-69
2024/01/07 08:08:45;;;;;;;1.00;1.00;;;-11.00;99.90;;;;;;5020761;28;20267;-69
2024/01/07 08:11:11;;;;;;;1.00;1.00;;;-11.00;99.90;;;;;;5031121;28;20191;-68
2024/01/07 08:13:38;;;;;;;1.53;1.43;;;-11.00;99.90;;;;;;5030925;28;20201;-69
2024/01/07 08:16:05;;;;;;;0.97;0.97;;;-11.00;99.90;;;;;;5031125;28;20765;-68
2024/01/07 08:18:31;;;;;;;0.90;0.90;;;-11.00;99.90;;;;;;5030990;28;20562;-68
2024/01/07 08:20:57;;;;;;;1.00;1.00;;;-11.10;99.90;;;;;;5031002;28;20186;-68
2024/01/07 08:23:24;;;;;;;1.00;1.00;;;-11.00;99.90;;;;;;5030761;28;20654;-68
2024/01/07 08:25:51;;;;;;;1.00;1.00;;;-11.00;99.90;;;;;;5030995;28;20228;-69
2024/01/07 08:28:17;;;;;;;1.00;1.00;;;-11.10;99.90;;;;;;5031295;28;20210;-69
2024/01/07 08:30:43;;;;;;;0.80;0.80;;;-11.10;99.90;;;;;;5030797;28;20276;-69
2024/01/07 08:33:08;;;;;;;1.00;1.00;;;-11.00;99.90;;;;;;5031114;28;20344;-68
2024/01/07 08:35:34;;;;;;;1.00;1.00;;;-11.10;99.90;;;;;;5030871;28;20301;-69
2024/01/07 08:37:59;;;;;;;1.10;1.10;;;-11.10;99.90;;;;;;5025368;28;20289;-69
2024/01/07 08:40:25;;;;;;;1.00;1.00;;;-11.10;99.90;;;;;;5010762;28;20191;-70
2024/01/07 08:42:51;;;;;;;0.90;0.90;;;-11.10;99.90;;;;;;5011252;28;20201;-69
2024/01/07 08:45:17;;;;;;;1.00;1.00;;;-11.20;99.90;;;;;;5010951;28;20745;-69
2024/01/07 08:47:42;;;;;;;1.00;1.00;;;-11.10;99.90;;;;;;5010800;28;20202;-68
2024/01/07 08:50:08;;;;;;;1.10;1.10;;;-11.10;99.90;;;;;;5011056;28;20198;-68
2024/01/07 08:52:35;;;;;;;1.00;1.00;;;-11.10;99.90;;;;;;5010928;28;20195;-69
2024/01/07 08:55:02;;;;;;;1.00;1.00;;;-11.10;99.90;;;;;;5011119;28;20617;-68
2024/01/07 08:57:28;;;;;;;0.90;0.90;;;-11.10;99.90;;;;;;5010890;28;20190;-68
2024/01/07 08:59:53;;;;;;;0.97;0.97;;;-11.10;99.90;;;;;;5010886;28;20361;-68
2024/01/07 09:02:19;;;;;;;0.90;0.90;;;-11.20;99.90;;;;;;5007357;28;20586;-68
2024/01/07 09:04:45;;;;;;;1.00;1.00;;;-11.30;99.90;;;;;;5010630;28;20256;-68
2024/01/07 09:07:10;;;;;;;0.90;0.90;;;-11.40;99.90;;;;;;5010587;28;20567;-69
2024/01/07 09:09:36;;;;;;;0.90;0.90;;;-11.40;99.90;;;;;;5010918;28;20210;-69
2024/01/07 09:12:03;;;;;;;1.10;1.10;;;-11.50;99.90;;;;;;5010780;28;20613;-68
2024/01/07 09:14:30;;;;;;;1.83;1.73;;;-11.60;99.90;;;;;;5010522;28;20211;-69
2024/01/07 09:16:55;;;;;;;1.10;1.10;;;-11.60;99.90;;;;;;5010747;28;20206;-69
2024/01/07 09:19:21;;;;;;;1.00;1.00;;;-11.70;99.90;;;;;;5010561;28;20194;-69
2024/01/07 09:21:47;;;;;;;1.00;1.00;;;-11.70;99.90;;;;;;5010706;28;20213;-69
2024/01/07 09:24:12;;;;;;;1.10;1.10;;;-11.80;99.90;;;;;;5009285;28;20553;-68
2024/01/07 09:26:38;;;;;;;0.90;0.90;;;-11.80;99.90;;;;;;5010591;28;20202;-68
2024/01/07 09:29:03;;;;;;;2.10;2.00;;;-11.70;99.90;;;;;;5009452;28;20451;-67
2024/01/07 09:31:29;;;;;;;1.00;1.00;;;-11.70;99.90;;;;;;5010557;28;20662;-68
2024/01/07 09:33:55;;;;;;;1.30;1.23;;;-11.70;99.90;;;;;;5010393;28;20200;-67
2024/01/07 09:36:21;;;;;;;1.17;1.10;;;-11.70;99.90;;;;;;5010185;28;20235;-68
2024/01/07 09:38:46;;;;;;;0.90;0.90;;;-11.70;99.90;;;;;;5010581;28;20199;-67
2024/01/07 09:41:12;;;;;;;0.90;0.90;;;-11.70;99.90;;;;;;5009820;28;20199;-67
2024/01/07 09:43:38;;;;;;;1.40;1.30;;;-11.70;99.90;;;;;;5009544;28;20199;-67
2024/01/07 09:46:04;;;;;;;1.00;1.00;;;-11.70;99.90;;;;;;5010512;28;20199;-67
2024/01/07 09:48:30;;;;;;;1.00;1.00;;;-11.60;99.90;;;;;;5010162;28;20203;-67
2024/01/07 09:50:58;;;;;;;1.00;1.00;;;-11.60;99.90;;;;;;5010224;28;20183;-67
2024/01/07 09:53:30;;;;;;;0.90;0.90;;;-11.50;99.90;;;;;;5010279;28;20202;-67
2024/01/07 09:56:07;;;;;;;0.90;0.90;;;-11.50;99.90;;;;;;5011255;28;20191;-66
2024/01/07 09:58:33;;;;;;;1.00;1.00;;;-11.40;99.90;;;;;;5013752;28;20201;-67
2024/01/07 10:00:59;;;;;;;1.00;1.00;;;-11.30;99.90;;;;;;5021173;28;20206;-66
2024/01/07 10:03:25;;;;;;;3.30;3.10;;;-11.30;99.90;;;;;;5033038;28;20210;-68
2024/01/07 10:05:52;;;;;;;1.00;1.00;;;-11.20;99.90;;;;;;5033473;28;20347;-67
2024/01/07 10:08:17;;;;;;;1.00;1.00;;;-11.10;99.90;;;;;;5033248;28;20693;-66
2024/01/07 10:10:43;;;;;;;1.43;1.37;;;-11.00;99.90;;;;;;5033314;28;20268;-66
2024/01/07 10:13:09;;;;;;;1.00;1.00;;;-11.00;99.90;;;;;;5032055;28;20661;-67
2024/01/07 10:15:35;;;;;;;1.83;1.67;;;-10.90;99.90;;;;;;5033071;28;20202;-67
2024/01/07 10:18:07;;;;;;;1.07;1.07;;;-10.90;99.90;;;;;;5024919;28;20195;-66
2024/01/07 10:20:34;;;;;;;0.90;0.90;;;-10.80;99.90;;;;;;5012531;28;20693;-66
2024/01/07 10:23:03;;;;;;;1.00;1.00;;;-10.70;99.90;;;;;;5013411;28;20206;-67
2024/01/07 10:25:32;;;;;;;1.00;1.00;;;-10.60;99.90;;;;;;5013044;28;20232;-67
2024/01/07 10:28:01;;;;;;;1.50;1.40;;;-10.50;99.90;;;;;;5013412;28;20203;-67
2024/01/07 10:30:30;;;;;;;0.90;0.90;;;-10.30;99.90;;;;;;5012623;28;20278;-66
2024/01/07 10:32:58;;;;;;;1.00;1.00;;;-10.20;99.90;;;;;;5013347;28;20274;-66
2024/01/07 10:35:33;;;;;;;1.20;1.20;;;-10.20;99.90;;;;;;5013171;28;20195;-67
2024/01/07 10:38:02;;;;;;;0.90;0.90;;;-10.40;99.90;;;;;;5013248;28;20627;-66
2024/01/07 10:40:29;;;;;;;0.90;0.90;;;-10.50;99.90;;;;;;5012955;28;20671;-65
2024/01/07 10:42:56;;;;;;;1.00;1.00;;;-10.70;99.90;;;;;;5013011;28;20206;-67
2024/01/07 10:45:22;;;;;;;0.90;0.90;;;-10.80;99.90;;;;;;4995226;28;20206;-66
2024/01/07 10:47:52;;;;;;;1.00;1.00;;;-10.90;99.90;;;;;;5012932;28;20201;-66
2024/01/07 10:50:19;;;;;;;1.27;1.20;;;-10.90;99.90;;;;;;5012652;28;20286;-66
2024/01/07 10:52:51;;;;;;;0.90;0.90;;;-10.90;99.90;;;;;;5013210;28;20195;-67
2024/01/07 10:55:18;;;;;;;1.93;1.83;;;-10.90;99.90;;;;;;5012867;28;20210;-67
2024/01/07 10:57:47;;;;;;;0.90;0.90;;;-11.00;99.90;;;;;;5024553;28;20201;-68
2024/01/07 11:00:20;;;;;;;0.90;0.90;;;-11.00;99.90;;;;;;5032481;28;20213;-67
2024/01/07 11:03:09;;;;;;;1.00;1.00;;;-11.10;99.90;;;;;;5032293;28;20194;-66
2024/01/07 11:05:46;;;;;;;0.97;0.97;;;-11.10;99.90;;;;;;5032263;28;20293;-66
2024/01/07 11:08:36;;;;;;;0.90;0.90;;;-11.10;99.90;;;;;;5031123;28;20202;-66
2024/01/07 11:11:23;;;;;;;0.90;0.90;;;-11.20;99.90;;;;;;5032312;28;20461;-66
2024/01/07 11:13:49;;;;;;;1.10;1.10;;;-11.20;99.90;;;;;;5032257;28;20704;-66
2024/01/07 11:16:41;;;;;;;0.90;0.90;;;-11.30;99.90;;;;;;5032185;28;20231;-66
2024/01/07 11:19:07;;;;;;;0.90;0.90;;;-11.40;99.90;;;;;;5032098;28;20202;-67
2024/01/07 11:21:33;;;;;;;0.90;0.90;;;-11.40;99.90;;;;;;5031865;28;20190;-66
2024/01/07 11:23:58;;;;;;;1.27;1.23;;;-11.40;99.90;;;;;;5030766;28;20315;-66
2024/01/07 11:26:24;;;;;;;1.10;1.10;;;-11.40;99.90;;;;;;5029170;28;20289;-66
2024/01/07 11:28:57;;;;;;;1.57;1.43;;;-11.40;99.90;;;;;;5012157;28;20286;-66
2024/01/07 11:31:41;;;;;;;0.90;0.90;;;-11.50;99.90;;;;;;4994038;28;20195;-67
2024/01/07 11:34:08;;;;;;;0.90;0.90;;;-11.60;99.90;;;;;;5012544;28;20205;-66
2024/01/07 11:36:36;;;;;;;1.00;1.00;;;-11.60;99.90;;;;;;5011787;28;20691;-67
2024/01/07 11:39:03;;;;;;;0.90;0.90;;;-11.70;99.90;;;;;;5011783;28;20199;-66
2024/01/07 11:41:51;;;;;;;0.90;0.90;;;-11.70;99.90;;;;;;5012050;28;20198;-66
2024/01/07 11:44:17;;;;;;;1.00;1.00;;;-11.70;99.90;;;;;;4995572;28;20560;-66
2024/01/07 11:46:43;;;;;;;0.90;0.90;;;-11.70;99.90;;;;;;5011566;28;20210;-66
2024/01/07 11:49:09;;;;;;;1.00;1.00;;;-11.70;99.90;;;;;;5011729;28;20726;-68
2024/01/07 11:51:37;;;;;;;0.90;0.90;;;-11.70;99.90;;;;;;5011574;28;20202;-68
2024/01/07 11:54:03;;;;;;;1.00;1.00;;;-11.80;99.90;;;;;;5010396;28;20298;-70
2024/01/07 11:56:29;;;;;;;1.00;1.00;;;-11.90;99.90;;;;;;5011528;28;20294;-68
2024/01/07 11:58:57;;;;;;;0.90;0.90;;;-12.00;99.90;;;;;;5011526;28;20721;-68
2024/01/07 12:01:23;;;;;;;0.90;0.90;;;-12.00;99.90;;;;;;5011371;28;20582;-69
2024/01/07 12:03:50;;;;;;;1.00;1.00;;;-12.00;99.90;;;;;;5011401;28;20210;-69
2024/01/07 12:06:18;;;;;;;1.07;1.07;;;-12.00;99.90;;;;;;5011320;28;20201;-68
2024/01/07 12:08:44;;;;;;;1.00;1.00;;;-12.00;99.90;;;;;;5011386;28;20221;-69
2024/01/07 12:11:14;;;;;;;0.90;0.90;;;-12.10;99.90;;;;;;5011615;28;20191;-71
2024/01/07 12:13:41;;;;;;;1.00;1.00;;;-12.20;99.90;;;;;;5011244;28;20230;-71
2024/01/07 12:16:08;;;;;;;0.90;0.90;;;-12.20;99.90;;;;;;5010089;28;20199;-71
2024/01/07 12:18:35;;;;;;;0.80;0.80;;;-12.20;99.90;;;;;;4993197;28;20297;-70
2024/01/07 12:21:01;;;;;;;0.93;0.93;;;-12.20;99.90;;;;;;5011364;28;20214;-71
2024/01/07 12:23:27;;;;;;;0.90;0.90;;;-12.10;99.90;;;;;;5010825;28;20312;-71
2024/01/07 12:25:53;;;;;;;0.90;0.90;;;-12.10;99.90;;;;;;5010125;28;20214;-72
2024/01/07 12:28:19;;;;;;;0.90;0.90;;;-12.20;99.90;;;;;;5011050;28;20805;-71
2024/01/07 12:30:47;;;;;;;0.90;0.90;;;-12.20;99.90;;;;;;5009773;28;20281;-68
2024/01/07 12:33:18;;;;;;;0.90;0.90;;;-12.20;99.90;;;;;;5011107;28;20194;-70